Riggston, Illinois
Current Conditions -  °F | °C
As of 11:55 PM on Monday 26 Jan 2015 (Local Time) from KIJX Reporting Station
Overcast Overcast  
Wind Chill: 29°   Ceiling: 6000
Heat Index: 35°   Visibility: 7mi
Dew Point: 32°   Wind: 7mph
Humidity: 90%   Direction: 280°W
Pressure: 29.91"   Gusts: NA
Location:  39.6195°N, 90.4337°W
Report Text: KIJX 270555Z AUTO 28006KT 7SM OVC060 02/00 A2991 RMK AO2 T00160001 10021 20016 400211061
Loading
Personal Weather Stations






























Interactive Weather Map New forecast layout! Learn more

10-Day Weather Forecast

Advertisements
Track Severe Weather on mobile